Forside
METAR-TAF:

METAR-TAF

Lufthavne :

Mount Vernon Airport

Mount Vernon, Illinois, USA

Breddekreds: 38-19N, længdekreds: 088-52W, højde: 146 m

Aktuelle vejr

Denne rapport blev lavet for 1 time og 1 minutter siden, kl. 20:56 UTC
Vind 3 kt fra varierende retninger
Temperatur 7°C
Fugtighed 66%
Tryk 1020 hPa
Sigt: 16.1 km
skyfri

METAR: KMVN 162056Z AUTO VRB03KT 10SM CLR 07/01 A3011 RMK AO2 SLP201 T00720011 53002

Tid: 15:57 (21:57 UTC)


TAF: fraværende

Vejrobservationer og prognoser fra mere end 4000 lufthavne (METAR og TAF).

De gule og røde prikker repræsenterer de meteorologiske stationer.

Flyt musen over at se navnet på stationen.

Så klik over at se vejr observationer og prognoser.

At skifte det kort: Klik på de grønne knapper med et sort kors for at zoome ind; på den grønne knap med en bindestreg for at zoome ud; eller på de grønne pile for tilstødende kort.


METAR-TAF: